Mountain Creek, Alabama
Current Conditions -  °F | °C
As of 10:55 AM on Thursday 23 Oct 2014 (Local Time) from K1A9 Reporting Station
Clear Clear  
Wind Chill: 60°   Ceiling: Unl
Heat Index: 60°   Visibility: 10mi
Dew Point: 46°   Wind: 0mph
Humidity: 59%   Direction: NA
Pressure: 30.15"   Gusts: NA
Location:  32.6554°N, 86.5103°W
Report Text: K1A9 231555Z AUTO 00000KT 10SM CLR 16/08 A3015 RMK AO2 T01550076
Loading
Personal Weather Stations






























Interactive Weather Map
Tropical Storm Tracking
New forecast layout! Learn more

10-Day Weather Forecast

Advertisements
Track Severe Weather on mobile